createdAt,value
2022-08-07T00:00:45.714Z,99.90
2022-08-07T00:03:18.651Z,99.90
2022-08-07T00:05:46.378Z,99.90
2022-08-07T00:08:15.574Z,99.90
2022-08-07T00:10:47.855Z,99.90
2022-08-07T00:13:23.873Z,99.90
2022-08-07T00:15:58.343Z,99.90
2022-08-07T00:18:29.595Z,99.90
2022-08-07T00:21:08.267Z,99.90
2022-08-07T00:23:57.097Z,99.90
2022-08-07T00:26:49.528Z,99.90
2022-08-07T00:29:37.316Z,99.90
2022-08-07T00:32:06.830Z,99.90
2022-08-07T00:34:36.231Z,99.90
2022-08-07T00:37:05.041Z,99.90
2022-08-07T00:39:36.981Z,99.90
2022-08-07T00:42:13.824Z,99.90
2022-08-07T00:44:44.087Z,99.90
2022-08-07T00:47:16.178Z,99.90
2022-08-07T00:50:20.698Z,99.90
2022-08-07T00:53:01.902Z,99.90
2022-08-07T00:56:02.401Z,99.90
2022-08-07T00:58:25.518Z,99.90
2022-08-07T01:00:55.059Z,99.90
2022-08-07T01:03:56.828Z,99.90
2022-08-07T01:06:23.752Z,99.90
2022-08-07T01:09:04.393Z,99.90
2022-08-07T01:12:24.088Z,99.90
2022-08-07T01:14:37.063Z,99.90
2022-08-07T01:17:07.337Z,99.90
2022-08-07T01:19:38.546Z,99.90
2022-08-07T01:22:22.574Z,99.90
2022-08-07T01:25:39.852Z,99.90
2022-08-07T01:27:54.602Z,99.90
2022-08-07T01:33:08.863Z,99.90
2022-08-07T01:35:53.198Z,99.90
2022-08-07T01:38:29.902Z,99.90
2022-08-07T01:41:09.373Z,99.90
2022-08-07T01:43:43.168Z,99.90
2022-08-07T01:46:13.507Z,99.90
2022-08-07T01:48:49.919Z,99.90
2022-08-07T01:52:02.326Z,99.90
2022-08-07T01:54:36.285Z,99.90
2022-08-07T01:57:24.763Z,99.90
2022-08-07T02:00:13.347Z,99.90
2022-08-07T02:03:18.599Z,99.90
2022-08-07T02:06:01.055Z,99.90
2022-08-07T02:08:41.650Z,99.90
2022-08-07T02:11:30.874Z,99.90
2022-08-07T02:14:09.088Z,99.90
2022-08-07T02:16:39.556Z,99.90
2022-08-07T02:20:03.551Z,99.90
2022-08-07T02:22:03.351Z,99.90
2022-08-07T02:24:35.876Z,99.90
2022-08-07T02:27:05.261Z,99.90
2022-08-07T02:29:48.526Z,99.90
2022-08-07T02:32:23.234Z,99.90
2022-08-07T02:34:54.695Z,99.90
2022-08-07T02:37:36.152Z,99.90
2022-08-07T02:40:31.093Z,99.90
2022-08-07T02:43:08.076Z,99.90
2022-08-07T02:45:58.675Z,99.90
2022-08-07T02:48:34.532Z,99.90
2022-08-07T02:51:41.845Z,99.90
2022-08-07T02:54:09.278Z,99.90
2022-08-07T02:56:40.196Z,99.90
2022-08-07T02:59:12.653Z,99.90
2022-08-07T03:01:47.311Z,99.90
2022-08-07T03:04:28.058Z,99.90
2022-08-07T03:07:07.052Z,99.90
2022-08-07T03:09:44.827Z,99.90
2022-08-07T03:12:22.284Z,99.90
2022-08-07T03:14:56.368Z,99.90
2022-08-07T03:17:27.503Z,99.90
2022-08-07T03:19:56.957Z,99.90
2022-08-07T03:22:31.966Z,99.90
2022-08-07T03:25:03.597Z,99.90
2022-08-07T03:28:09.075Z,99.90
2022-08-07T03:30:31.873Z,99.90
2022-08-07T03:33:03.943Z,99.90
2022-08-07T03:35:43.815Z,99.90
2022-08-07T03:38:29.725Z,99.90
2022-08-07T03:41:05.027Z,99.90
2022-08-07T03:43:35.996Z,99.90
2022-08-07T03:49:02.694Z,99.90
2022-08-07T03:51:47.703Z,99.90
2022-08-07T03:54:35.364Z,99.90
2022-08-07T03:57:09.944Z,99.90
2022-08-07T04:00:04.155Z,99.90
2022-08-07T04:02:47.518Z,99.90
2022-08-07T04:05:40.811Z,99.90
2022-08-07T04:08:30.424Z,99.90
2022-08-07T04:11:14.979Z,99.90
2022-08-07T04:14:10.596Z,99.90
2022-08-07T04:16:58.629Z,99.90
2022-08-07T04:19:50.983Z,99.90
2022-08-07T04:22:27.538Z,99.90
2022-08-07T04:25:13.029Z,99.90
2022-08-07T04:27:53.789Z,99.90
2022-08-07T04:30:43.437Z,99.90
2022-08-07T04:33:35.355Z,99.90
2022-08-07T04:36:06.477Z,99.90
2022-08-07T04:38:36.047Z,99.90
2022-08-07T04:41:04.792Z,99.90
2022-08-07T04:44:12.956Z,99.90
2022-08-07T04:46:53.945Z,99.90
2022-08-07T04:49:57.835Z,99.90
2022-08-07T04:54:00.917Z,99.90
2022-08-07T04:58:11.902Z,99.90
2022-08-07T05:00:10.673Z,99.90
2022-08-07T05:03:31.251Z,99.90
2022-08-07T05:06:19.585Z,99.90
2022-08-07T05:09:17.698Z,99.90
2022-08-07T05:12:26.942Z,99.90
2022-08-07T05:15:23.793Z,99.90
2022-08-07T05:18:10.410Z,99.90
2022-08-07T05:21:03.885Z,99.90
2022-08-07T05:23:50.666Z,99.90
2022-08-07T05:26:26.186Z,99.90
2022-08-07T05:29:04.430Z,99.90
2022-08-07T05:31:39.584Z,99.90
2022-08-07T05:34:27.598Z,99.90
2022-08-07T05:36:59.098Z,99.90
2022-08-07T05:40:13.527Z,99.90
2022-08-07T05:42:34.654Z,99.90
2022-08-07T05:45:26.300Z,99.90
2022-08-07T05:48:06.567Z,99.90
2022-08-07T05:50:44.485Z,99.90
2022-08-07T05:54:08.563Z,99.90
2022-08-07T05:56:18.340Z,99.90
2022-08-07T05:58:53.646Z,99.90
2022-08-07T06:01:34.778Z,99.90
2022-08-07T06:07:03.432Z,99.90
2022-08-07T06:09:56.604Z,99.90
2022-08-07T06:12:31.754Z,99.90
2022-08-07T06:15:05.358Z,99.90
2022-08-07T06:17:37.879Z,99.90
2022-08-07T06:20:12.623Z,99.90
2022-08-07T06:23:02.188Z,99.90
2022-08-07T06:28:28.828Z,99.90
2022-08-07T06:31:01.314Z,99.90
2022-08-07T06:33:33.607Z,99.90
2022-08-07T06:36:12.129Z,99.90
2022-08-07T06:38:51.219Z,99.90
2022-08-07T06:42:00.658Z,99.90
2022-08-07T06:44:46.147Z,99.90
2022-08-07T06:47:19.635Z,99.90
2022-08-07T06:49:51.549Z,99.90
2022-08-07T06:52:31.727Z,99.90
2022-08-07T06:55:32.012Z,99.90
2022-08-07T06:58:24.491Z,99.90
2022-08-07T07:01:01.289Z,99.90
2022-08-07T07:03:47.433Z,99.90
2022-08-07T07:09:26.090Z,99.90
2022-08-07T07:12:36.881Z,99.90
2022-08-07T07:15:43.334Z,99.90
2022-08-07T07:18:47.147Z,99.90
2022-08-07T07:21:40.540Z,99.90
2022-08-07T07:24:17.638Z,99.90
2022-08-07T07:26:49.710Z,99.90
2022-08-07T07:29:39.918Z,99.90
2022-08-07T07:32:16.750Z,99.90
2022-08-07T07:34:51.975Z,99.90
2022-08-07T07:37:47.155Z,99.90
2022-08-07T07:40:18.889Z,99.90
2022-08-07T07:42:54.348Z,99.90
2022-08-07T07:46:38.539Z,99.90
2022-08-07T07:48:36.030Z,99.90
2022-08-07T07:51:07.833Z,99.90
2022-08-07T07:53:53.754Z,99.90
2022-08-07T07:56:30.519Z,99.90
2022-08-07T07:59:05.954Z,99.90
2022-08-07T08:02:03.563Z,99.90
2022-08-07T08:04:32.188Z,99.90
2022-08-07T08:07:07.818Z,99.90
2022-08-07T08:09:51.773Z,99.90
2022-08-07T08:12:52.045Z,99.90
2022-08-07T08:15:23.655Z,99.90
2022-08-07T08:20:38.270Z,99.90
2022-08-07T08:23:29.340Z,99.90
2022-08-07T08:26:29.645Z,99.90
2022-08-07T08:29:04.273Z,99.90
2022-08-07T08:32:17.092Z,99.90
2022-08-07T08:34:46.451Z,99.90
2022-08-07T08:40:03.406Z,99.90
2022-08-07T08:42:51.556Z,99.90
2022-08-07T08:45:41.554Z,99.90
2022-08-07T08:48:57.204Z,99.90
2022-08-07T08:52:00.925Z,99.90
2022-08-07T08:55:09.493Z,99.90
2022-08-07T08:58:03.356Z,99.90
2022-08-07T09:00:42.571Z,99.90
2022-08-07T09:03:52.580Z,99.90
2022-08-07T09:06:51.554Z,99.90
2022-08-07T09:10:00.181Z,99.90
2022-08-07T09:13:15.543Z,99.90
2022-08-07T09:16:30.354Z,99.90
2022-08-07T09:19:51.323Z,99.90
2022-08-07T09:24:31.834Z,99.90
2022-08-07T09:26:17.205Z,99.90
2022-08-07T09:30:00.735Z,99.90
2022-08-07T09:32:03.634Z,99.90
2022-08-07T09:36:05.384Z,99.90
2022-08-07T09:38:53.780Z,99.90
2022-08-07T09:42:03.087Z,99.90
2022-08-07T09:47:25.530Z,99.90
2022-08-07T09:48:11.629Z,99.90
2022-08-07T09:50:56.223Z,99.90
2022-08-07T09:53:41.145Z,99.90
2022-08-07T09:56:53.153Z,99.90
2022-08-07T09:59:35.723Z,99.90
2022-08-07T10:02:14.716Z,99.90
2022-08-07T10:05:13.859Z,99.90
2022-08-07T10:07:53.701Z,99.90
2022-08-07T10:14:00.898Z,99.90
2022-08-07T10:16:45.087Z,99.90
2022-08-07T10:19:38.386Z,99.90
2022-08-07T10:22:33.563Z,99.70
2022-08-07T10:25:04.828Z,99.50
2022-08-07T10:27:45.924Z,99.90
2022-08-07T10:30:37.684Z,99.50
2022-08-07T10:33:17.311Z,99.60
2022-08-07T10:36:11.363Z,99.10
2022-08-07T10:39:05.500Z,98.80
2022-08-07T10:42:21.234Z,98.70
2022-08-07T10:45:44.832Z,98.30
2022-08-07T10:48:21.634Z,97.80
2022-08-07T10:51:02.072Z,98.00
2022-08-07T10:54:06.997Z,97.60
2022-08-07T10:56:57.273Z,97.30
2022-08-07T11:00:04.557Z,97.80
2022-08-07T11:02:49.457Z,97.80
2022-08-07T11:05:57.649Z,97.90
2022-08-07T11:08:46.903Z,98.30
2022-08-07T11:11:25.773Z,98.30
2022-08-07T11:14:44.339Z,98.20
2022-08-07T11:17:02.211Z,98.30
2022-08-07T11:19:52.222Z,98.40
2022-08-07T11:23:01.654Z,98.60
2022-08-07T11:25:49.975Z,98.60
2022-08-07T11:28:30.083Z,98.60
2022-08-07T11:31:22.089Z,98.50
2022-08-07T11:34:04.078Z,98.40
2022-08-07T11:37:00.650Z,98.70
2022-08-07T11:40:05.528Z,98.60
2022-08-07T11:43:04.289Z,98.40
2022-08-07T11:45:53.801Z,98.20
2022-08-07T11:48:49.973Z,98.10
2022-08-07T11:52:03.622Z,98.50
2022-08-07T11:55:19.025Z,98.50
2022-08-07T11:58:20.920Z,98.60
2022-08-07T12:01:20.253Z,98.40
2022-08-07T12:04:29.592Z,98.30
2022-08-07T12:07:09.114Z,98.40
2022-08-07T12:10:25.015Z,98.30
2022-08-07T12:13:11.549Z,98.20
2022-08-07T12:16:12.727Z,98.10
2022-08-07T12:19:21.325Z,98.20
2022-08-07T12:22:37.310Z,98.30
2022-08-07T12:26:02.747Z,97.90
2022-08-07T12:28:23.976Z,97.80
2022-08-07T12:30:55.394Z,97.80
2022-08-07T12:33:30.923Z,97.50
2022-08-07T12:36:17.578Z,97.60
2022-08-07T12:39:04.456Z,97.90
2022-08-07T12:41:54.953Z,97.50
2022-08-07T12:44:28.421Z,97.40
2022-08-07T12:47:01.964Z,97.40
2022-08-07T12:49:51.805Z,97.30
2022-08-07T12:52:54.342Z,97.30
2022-08-07T12:55:40.769Z,97.10
2022-08-07T12:58:28.226Z,96.70
2022-08-07T13:01:44.947Z,96.90
2022-08-07T13:04:33.998Z,96.50
2022-08-07T13:08:11.958Z,96.20
2022-08-07T13:10:51.577Z,96.50
2022-08-07T13:13:47.883Z,96.00
2022-08-07T13:16:37.411Z,95.80
2022-08-07T13:19:34.947Z,95.90
2022-08-07T13:22:33.349Z,96.10
2022-08-07T13:25:24.175Z,95.90
2022-08-07T13:28:18.277Z,95.60
2022-08-07T13:31:01.935Z,95.80
2022-08-07T13:34:34.035Z,95.80
2022-08-07T13:36:57.810Z,95.60
2022-08-07T13:40:35.996Z,95.50
2022-08-07T13:43:11.787Z,95.40
2022-08-07T13:46:12.413Z,95.60
2022-08-07T13:48:38.801Z,95.80
2022-08-07T13:51:26.870Z,95.60
2022-08-07T13:54:09.136Z,95.40
2022-08-07T13:56:52.090Z,95.30
2022-08-07T13:59:31.409Z,95.60
2022-08-07T14:02:08.708Z,95.40
2022-08-07T14:04:50.085Z,95.20
2022-08-07T14:07:23.058Z,95.30
2022-08-07T14:10:01.459Z,95.20
2022-08-07T14:12:54.547Z,95.00
2022-08-07T14:15:35.288Z,94.70
2022-08-07T14:18:32.553Z,94.90
2022-08-07T14:22:00.604Z,94.60
2022-08-07T14:24:21.127Z,94.90
2022-08-07T14:26:57.861Z,95.00
2022-08-07T14:30:05.624Z,95.10
2022-08-07T14:32:20.656Z,95.00
2022-08-07T14:34:54.011Z,94.70
2022-08-07T14:37:23.731Z,94.70
2022-08-07T14:40:16.128Z,94.60
2022-08-07T14:43:59.117Z,94.50
2022-08-07T14:46:00.061Z,94.40
2022-08-07T14:48:33.189Z,94.30
2022-08-07T14:54:20.832Z,94.30
2022-08-07T14:56:52.810Z,94.20
2022-08-07T15:00:04.750Z,94.30
2022-08-07T15:02:31.882Z,94.50
2022-08-07T15:05:03.705Z,94.50
2022-08-07T15:07:50.901Z,94.60
2022-08-07T15:10:25.006Z,94.80
2022-08-07T15:13:11.815Z,94.90
2022-08-07T15:15:52.415Z,95.00
2022-08-07T15:18:35.846Z,95.00
2022-08-07T15:25:13.347Z,95.20
2022-08-07T15:27:17.598Z,95.40
2022-08-07T15:30:10.282Z,95.40
2022-08-07T15:33:04.008Z,95.40
2022-08-07T15:36:01.245Z,95.50
2022-08-07T15:38:31.036Z,95.90
2022-08-07T15:41:23.621Z,95.90
2022-08-07T15:44:09.086Z,95.80
2022-08-07T15:46:51.790Z,95.90
2022-08-07T15:52:20.808Z,95.70
2022-08-07T15:54:51.972Z,95.80
2022-08-07T15:57:48.881Z,95.90
2022-08-07T16:00:31.789Z,96.10
2022-08-07T16:03:21.520Z,96.40
2022-08-07T16:05:54.800Z,96.30
2022-08-07T16:08:37.798Z,96.30
2022-08-07T16:11:28.757Z,96.30
2022-08-07T16:14:06.994Z,96.80
2022-08-07T16:17:02.654Z,96.90
2022-08-07T16:20:34.121Z,97.00
2022-08-07T16:23:53.458Z,97.20
2022-08-07T16:26:30.951Z,96.90
2022-08-07T16:30:10.103Z,96.80
2022-08-07T16:32:35.046Z,96.80
2022-08-07T16:35:58.270Z,96.70
2022-08-07T16:39:00.179Z,96.80
2022-08-07T16:41:48.733Z,96.90
2022-08-07T16:46:20.969Z,97.10
2022-08-07T16:48:34.460Z,96.90
2022-08-07T16:51:57.714Z,96.90
2022-08-07T16:54:55.917Z,97.20
2022-08-07T16:58:02.644Z,98.00
2022-08-07T17:00:41.030Z,98.10
2022-08-07T17:03:11.240Z,98.20
2022-08-07T17:06:29.767Z,97.90
2022-08-07T17:09:14.091Z,98.10
2022-08-07T17:12:03.980Z,98.00
2022-08-07T17:14:58.784Z,97.70
2022-08-07T17:17:49.807Z,98.00
2022-08-07T17:20:41.767Z,98.70
2022-08-07T17:23:22.444Z,98.40
2022-08-07T17:25:56.062Z,98.50
2022-08-07T17:28:34.485Z,98.80
2022-08-07T17:31:16.221Z,99.90
2022-08-07T17:34:19.855Z,99.90
2022-08-07T17:36:59.803Z,99.90
2022-08-07T17:39:58.834Z,99.90
2022-08-07T17:42:59.995Z,99.90
2022-08-07T17:45:42.230Z,99.90
2022-08-07T17:48:30.582Z,99.90
2022-08-07T17:51:21.291Z,99.90
2022-08-07T17:54:06.546Z,99.90
2022-08-07T17:56:52.650Z,99.90
2022-08-07T17:59:50.651Z,99.90
2022-08-07T18:02:38.079Z,99.90
2022-08-07T18:05:21.310Z,99.90
2022-08-07T18:08:24.164Z,99.90
2022-08-07T18:12:16.319Z,99.90
2022-08-07T18:14:37.671Z,99.90
2022-08-07T18:18:46.719Z,99.90
2022-08-07T18:21:08.512Z,99.90
2022-08-07T18:24:34.517Z,99.90
2022-08-07T18:27:39.111Z,99.90
2022-08-07T18:30:32.977Z,99.90
2022-08-07T18:33:55.238Z,99.90
2022-08-07T18:36:55.306Z,99.90
2022-08-07T18:40:07.165Z,99.90
2022-08-07T18:42:50.067Z,99.90
2022-08-07T18:45:44.621Z,99.90
2022-08-07T18:50:32.023Z,99.90
2022-08-07T18:52:53.161Z,99.90
2022-08-07T18:55:57.052Z,99.90
2022-08-07T18:58:57.856Z,99.90
2022-08-07T19:02:18.248Z,99.90
2022-08-07T19:05:10.756Z,99.90
2022-08-07T19:08:03.989Z,99.90
2022-08-07T19:10:51.672Z,99.90
2022-08-07T19:13:52.267Z,99.90
2022-08-07T19:17:05.556Z,99.90
2022-08-07T19:20:28.807Z,99.90
2022-08-07T19:23:18.239Z,99.90
2022-08-07T19:26:23.436Z,99.90
2022-08-07T19:30:57.871Z,99.90
2022-08-07T19:32:17.057Z,99.90
2022-08-07T19:35:04.429Z,99.90
2022-08-07T19:37:57.323Z,99.90
2022-08-07T19:40:30.794Z,99.90
2022-08-07T19:43:08.959Z,99.90
2022-08-07T19:46:07.968Z,99.90
2022-08-07T19:48:53.968Z,99.90
2022-08-07T19:51:51.901Z,99.90
2022-08-07T19:54:33.902Z,99.90
2022-08-07T19:58:03.483Z,99.90
2022-08-07T20:00:37.503Z,99.90
2022-08-07T20:03:35.629Z,99.90
2022-08-07T20:06:15.355Z,99.90
2022-08-07T20:09:06.085Z,99.90
2022-08-07T20:12:22.864Z,99.90
2022-08-07T20:14:53.968Z,99.90
2022-08-07T20:17:33.542Z,99.90
2022-08-07T20:20:12.474Z,99.90
2022-08-07T20:22:47.310Z,99.90
2022-08-07T20:25:19.766Z,99.90
2022-08-07T20:27:54.367Z,99.90
2022-08-07T20:30:49.711Z,99.90
2022-08-07T20:33:37.903Z,99.90
2022-08-07T20:36:10.850Z,99.90
2022-08-07T20:39:00.055Z,99.90
2022-08-07T20:41:38.508Z,99.90
2022-08-07T20:44:21.647Z,99.90
2022-08-07T20:47:05.413Z,99.90
2022-08-07T20:49:58.115Z,99.90
2022-08-07T20:52:51.615Z,99.90
2022-08-07T20:55:26.530Z,99.90
2022-08-07T20:58:02.940Z,99.90
2022-08-07T21:00:46.769Z,99.90
2022-08-07T21:03:28.950Z,99.90
2022-08-07T21:06:25.961Z,99.90
2022-08-07T21:09:15.603Z,99.90
2022-08-07T21:11:50.397Z,99.90
2022-08-07T21:14:34.313Z,99.90
2022-08-07T21:18:03.031Z,99.90
2022-08-07T21:20:05.574Z,99.90
2022-08-07T21:22:53.266Z,99.90
2022-08-07T21:26:34.788Z,99.90
2022-08-07T21:29:15.888Z,99.90
2022-08-07T21:32:48.089Z,99.90
2022-08-07T21:36:05.472Z,99.90
2022-08-07T21:39:47.795Z,99.90
2022-08-07T21:42:55.808Z,99.90
2022-08-07T21:46:10.901Z,99.90
2022-08-07T21:48:33.284Z,99.90
2022-08-07T21:54:23.337Z,99.90
2022-08-07T21:57:39.389Z,99.90
2022-08-07T22:00:25.057Z,99.90
2022-08-07T22:03:08.945Z,99.90
2022-08-07T22:06:06.681Z,99.90
2022-08-07T22:08:44.762Z,99.90
2022-08-07T22:11:20.558Z,99.90
2022-08-07T22:13:57.372Z,99.90
2022-08-07T22:16:46.690Z,99.90
2022-08-07T22:19:37.113Z,99.90
2022-08-07T22:22:20.708Z,99.90
2022-08-07T22:25:13.739Z,99.90
2022-08-07T22:28:31.779Z,99.90
2022-08-07T22:31:05.562Z,99.90
2022-08-07T22:33:57.069Z,99.90
2022-08-07T22:37:01.585Z,99.90
2022-08-07T22:39:53.111Z,99.90
2022-08-07T22:42:30.353Z,99.90
2022-08-07T22:45:11.085Z,99.90
2022-08-07T22:47:59.124Z,99.90
2022-08-07T22:51:06.730Z,99.90
2022-08-07T22:54:06.977Z,99.90
2022-08-07T22:57:18.197Z,99.90
2022-08-07T23:00:16.496Z,99.90
2022-08-07T23:03:28.459Z,99.90
2022-08-07T23:06:31.336Z,99.90
2022-08-07T23:10:00.813Z,99.90
2022-08-07T23:12:58.742Z,99.90
2022-08-07T23:16:06.516Z,99.90
2022-08-07T23:19:38.738Z,99.90
2022-08-07T23:22:45.181Z,99.90
2022-08-07T23:25:41.523Z,99.90
2022-08-07T23:28:28.516Z,99.90
2022-08-07T23:31:06.201Z,99.90
2022-08-07T23:34:21.702Z,99.90
2022-08-07T23:38:01.441Z,99.90
2022-08-07T23:40:41.936Z,99.90
2022-08-07T23:43:38.027Z,99.90
2022-08-07T23:46:19.920Z,99.90
2022-08-07T23:49:42.436Z,99.90
2022-08-07T23:53:01.318Z,99.90
2022-08-07T23:55:52.141Z,99.90
